sensor_id;sensor_type;location;lat;lon;timestamp;P1;durP1;ratioP1;P2;durP2;ratioP2
1991;SDS011;997;48.448;8.924;2023-05-07T03:03:18;4.70;;;4.30;;
1991;SDS011;997;48.448;8.924;2023-05-07T03:05:43;7.40;;;4.80;;
1991;SDS011;997;48.448;8.924;2023-05-07T03:08:09;4.80;;;4.40;;
1991;SDS011;997;48.448;8.924;2023-05-07T03:10:35;5.43;;;5.00;;
1991;SDS011;997;48.448;8.924;2023-05-07T03:13:01;5.20;;;4.47;;
1991;SDS011;997;48.448;8.924;2023-05-07T04:25:16;5.20;;;4.80;;
1991;SDS011;997;48.448;8.924;2023-05-07T04:32:52;4.40;;;4.10;;
1991;SDS011;997;48.448;8.924;2023-05-07T04:35:18;5.70;;;5.13;;
1991;SDS011;997;48.448;8.924;2023-05-07T04:55:58;5.67;;;4.03;;
1991;SDS011;997;48.448;8.924;2023-05-07T04:58:24;4.57;;;4.23;;
1991;SDS011;997;48.448;8.924;2023-05-07T05:00:50;5.33;;;4.70;;
1991;SDS011;997;48.448;8.924;2023-05-07T05:03:16;4.77;;;4.47;;
1991;SDS011;997;48.448;8.924;2023-05-07T05:05:41;5.37;;;4.87;;
1991;SDS011;997;48.448;8.924;2023-05-07T05:08:07;4.33;;;4.03;;
1991;SDS011;997;48.448;8.924;2023-05-07T05:10:33;5.43;;;5.03;;
1991;SDS011;997;48.448;8.924;2023-05-07T05:12:58;5.23;;;4.23;;
1991;SDS011;997;48.448;8.924;2023-05-07T05:20:34;5.57;;;5.17;;
1991;SDS011;997;48.448;8.924;2023-05-07T05:23:00;4.53;;;4.17;;
1991;SDS011;997;48.448;8.924;2023-05-07T05:25:25;4.90;;;3.63;;
1991;SDS011;997;48.448;8.924;2023-05-07T05:27:52;5.77;;;4.33;;
1991;SDS011;997;48.448;8.924;2023-05-07T05:30:18;4.97;;;4.50;;
1991;SDS011;997;48.448;8.924;2023-05-07T05:32:43;5.73;;;4.83;;
1991;SDS011;997;48.448;8.924;2023-05-07T05:35:09;4.83;;;4.53;;
1991;SDS011;997;48.448;8.924;2023-05-07T05:37:35;4.80;;;4.50;;
1991;SDS011;997;48.448;8.924;2023-05-07T05:40:01;5.33;;;4.93;;
1991;SDS011;997;48.448;8.924;2023-05-07T05:42:27;4.70;;;4.40;;
1991;SDS011;997;48.448;8.924;2023-05-07T05:44:53;6.20;;;5.60;;
1991;SDS011;997;48.448;8.924;2023-05-07T05:49:54;4.70;;;4.33;;
1991;SDS011;997;48.448;8.924;2023-05-07T05:52:19;4.93;;;4.53;;
1991;SDS011;997;48.448;8.924;2023-05-07T09:31:09;5.80;;;4.73;;
1991;SDS011;997;48.448;8.924;2023-05-07T09:33:36;4.63;;;4.33;;
1991;SDS011;997;48.448;8.924;2023-05-07T09:36:06;4.73;;;4.37;;
1991;SDS011;997;48.448;8.924;2023-05-07T09:38:34;4.47;;;4.17;;
1991;SDS011;997;48.448;8.924;2023-05-07T09:41:01;4.50;;;4.10;;
1991;SDS011;997;48.448;8.924;2023-05-07T09:43:31;4.30;;;4.00;;
1991;SDS011;997;48.448;8.924;2023-05-07T09:46:00;5.23;;;4.50;;
1991;SDS011;997;48.448;8.924;2023-05-07T09:48:32;4.97;;;4.57;;
1991;SDS011;997;48.448;8.924;2023-05-07T09:51:02;4.70;;;4.30;;
1991;SDS011;997;48.448;8.924;2023-05-07T09:53:30;4.73;;;4.33;;
1991;SDS011;997;48.448;8.924;2023-05-07T09:55:56;3.83;;;3.33;;
1991;SDS011;997;48.448;8.924;2023-05-07T09:58:23;4.40;;;4.10;;
1991;SDS011;997;48.448;8.924;2023-05-07T10:00:50;5.47;;;5.07;;
1991;SDS011;997;48.448;8.924;2023-05-07T10:03:17;3.93;;;3.73;;
1991;SDS011;997;48.448;8.924;2023-05-07T10:05:45;4.87;;;4.40;;
1991;SDS011;997;48.448;8.924;2023-05-07T10:08:12;3.90;;;3.60;;
1991;SDS011;997;48.448;8.924;2023-05-07T10:10:38;4.57;;;4.30;;
1991;SDS011;997;48.448;8.924;2023-05-07T10:13:05;4.63;;;4.23;;
1991;SDS011;997;48.448;8.924;2023-05-07T10:15:35;4.27;;;3.97;;
1991;SDS011;997;48.448;8.924;2023-05-07T10:18:03;3.90;;;3.50;;
1991;SDS011;997;48.448;8.924;2023-05-07T10:20:31;7.40;;;4.17;;
1991;SDS011;997;48.448;8.924;2023-05-07T10:22:58;5.27;;;4.47;;
1991;SDS011;997;48.448;8.924;2023-05-07T10:25:27;4.30;;;4.00;;
1991;SDS011;997;48.448;8.924;2023-05-07T10:27:55;4.07;;;3.20;;
1991;SDS011;997;48.448;8.924;2023-05-07T10:33:15;3.97;;;3.13;;
1991;SDS011;997;48.448;8.924;2023-05-07T10:35:45;3.40;;;3.20;;
1991;SDS011;997;48.448;8.924;2023-05-07T10:38:12;3.37;;;3.07;;
1991;SDS011;997;48.448;8.924;2023-05-07T10:40:37;3.33;;;3.03;;
1991;SDS011;997;48.448;8.924;2023-05-07T10:43:04;3.33;;;3.13;;
1991;SDS011;997;48.448;8.924;2023-05-07T10:45:30;3.30;;;3.00;;
1991;SDS011;997;48.448;8.924;2023-05-07T10:48:09;3.40;;;3.10;;
1991;SDS011;997;48.448;8.924;2023-05-07T10:50:45;3.83;;;3.53;;
1991;SDS011;997;48.448;8.924;2023-05-07T10:55:43;3.63;;;3.33;;
1991;SDS011;997;48.448;8.924;2023-05-07T10:58:27;4.73;;;4.40;;
1991;SDS011;997;48.448;8.924;2023-05-07T11:00:57;4.50;;;2.80;;
1991;SDS011;997;48.448;8.924;2023-05-07T11:03:24;4.50;;;3.00;;
1991;SDS011;997;48.448;8.924;2023-05-07T11:14:13;2.90;;;2.70;;
1991;SDS011;997;48.448;8.924;2023-05-07T11:16:40;3.43;;;3.13;;
1991;SDS011;997;48.448;8.924;2023-05-07T11:19:07;3.40;;;3.20;;
1991;SDS011;997;48.448;8.924;2023-05-07T11:21:33;3.37;;;3.17;;
1991;SDS011;997;48.448;8.924;2023-05-07T11:23:59;3.40;;;3.10;;
1991;SDS011;997;48.448;8.924;2023-05-07T11:26:27;2.63;;;2.43;;
1991;SDS011;997;48.448;8.924;2023-05-07T11:28:54;3.67;;;2.93;;
1991;SDS011;997;48.448;8.924;2023-05-07T11:31:22;2.97;;;2.77;;
1991;SDS011;997;48.448;8.924;2023-05-07T11:33:51;4.47;;;3.13;;
1991;SDS011;997;48.448;8.924;2023-05-07T11:36:17;4.73;;;4.33;;
1991;SDS011;997;48.448;8.924;2023-05-07T11:38:45;7.73;;;5.70;;
1991;SDS011;997;48.448;8.924;2023-05-07T11:41:11;5.67;;;4.07;;
1991;SDS011;997;48.448;8.924;2023-05-07T11:43:37;9.30;;;5.70;;
1991;SDS011;997;48.448;8.924;2023-05-07T11:46:05;9.27;;;5.13;;
1991;SDS011;997;48.448;8.924;2023-05-07T11:48:33;4.43;;;4.03;;
1991;SDS011;997;48.448;8.924;2023-05-07T11:51:03;4.80;;;4.40;;
1991;SDS011;997;48.448;8.924;2023-05-07T11:53:36;7.03;;;3.80;;
1991;SDS011;997;48.448;8.924;2023-05-07T11:56:09;5.70;;;4.13;;
1991;SDS011;997;48.448;8.924;2023-05-07T11:58:40;5.40;;;4.90;;
1991;SDS011;997;48.448;8.924;2023-05-07T12:01:07;4.30;;;4.00;;
1991;SDS011;997;48.448;8.924;2023-05-07T12:03:34;3.60;;;3.30;;
1991;SDS011;997;48.448;8.924;2023-05-07T12:06:13;4.80;;;3.80;;
1991;SDS011;997;48.448;8.924;2023-05-07T12:08:41;4.30;;;3.90;;
1991;SDS011;997;48.448;8.924;2023-05-07T12:11:08;3.80;;;3.50;;
1991;SDS011;997;48.448;8.924;2023-05-07T12:13:37;4.17;;;3.87;;
1991;SDS011;997;48.448;8.924;2023-05-07T12:16:03;3.30;;;3.10;;
1991;SDS011;997;48.448;8.924;2023-05-07T12:18:30;3.60;;;3.13;;
1991;SDS011;997;48.448;8.924;2023-05-07T12:20:56;3.30;;;3.10;;
1991;SDS011;997;48.448;8.924;2023-05-07T12:23:22;4.30;;;3.90;;
1991;SDS011;997;48.448;8.924;2023-05-07T12:25:49;3.13;;;2.93;;
1991;SDS011;997;48.448;8.924;2023-05-07T12:28:15;3.03;;;2.83;;
1991;SDS011;997;48.448;8.924;2023-05-07T12:30:43;3.20;;;2.90;;
1991;SDS011;997;48.448;8.924;2023-05-07T12:33:09;3.10;;;2.90;;
1991;SDS011;997;48.448;8.924;2023-05-07T12:35:39;2.90;;;2.60;;
1991;SDS011;997;48.448;8.924;2023-05-07T12:38:13;4.27;;;3.40;;
1991;SDS011;997;48.448;8.924;2023-05-07T12:40:52;3.57;;;3.03;;
1991;SDS011;997;48.448;8.924;2023-05-07T12:43:19;4.40;;;3.97;;
1991;SDS011;997;48.448;8.924;2023-05-07T12:45:48;4.20;;;3.50;;
1991;SDS011;997;48.448;8.924;2023-05-07T12:48:15;6.93;;;4.27;;
1991;SDS011;997;48.448;8.924;2023-05-07T12:50:41;4.10;;;3.80;;
1991;SDS011;997;48.448;8.924;2023-05-07T12:53:08;4.53;;;4.13;;
1991;SDS011;997;48.448;8.924;2023-05-07T12:55:43;4.30;;;3.90;;
1991;SDS011;997;48.448;8.924;2023-05-07T12:58:20;3.50;;;3.20;;
1991;SDS011;997;48.448;8.924;2023-05-07T13:00:54;4.20;;;3.20;;
1991;SDS011;997;48.448;8.924;2023-05-07T13:03:24;2.90;;;2.73;;
1991;SDS011;997;48.448;8.924;2023-05-07T13:05:51;3.70;;;3.40;;
1991;SDS011;997;48.448;8.924;2023-05-07T13:08:29;3.07;;;2.87;;
1991;SDS011;997;48.448;8.924;2023-05-07T13:10:59;3.47;;;3.13;;
1991;SDS011;997;48.448;8.924;2023-05-07T13:13:28;3.50;;;3.20;;
1991;SDS011;997;48.448;8.924;2023-05-07T13:15:55;3.67;;;3.37;;
1991;SDS011;997;48.448;8.924;2023-05-07T13:18:31;4.33;;;3.20;;
1991;SDS011;997;48.448;8.924;2023-05-07T13:21:01;2.83;;;2.63;;
1991;SDS011;997;48.448;8.924;2023-05-07T13:23:50;3.37;;;3.13;;
1991;SDS011;997;48.448;8.924;2023-05-07T13:26:23;3.40;;;3.10;;
1991;SDS011;997;48.448;8.924;2023-05-07T13:29:21;2.60;;;2.40;;
1991;SDS011;997;48.448;8.924;2023-05-07T13:31:58;4.23;;;3.27;;
1991;SDS011;997;48.448;8.924;2023-05-07T13:34:46;3.13;;;2.83;;
1991;SDS011;997;48.448;8.924;2023-05-07T13:37:14;3.87;;;3.57;;
1991;SDS011;997;48.448;8.924;2023-05-07T13:39:42;4.40;;;4.00;;
1991;SDS011;997;48.448;8.924;2023-05-07T13:42:09;10.50;;;8.07;;
1991;SDS011;997;48.448;8.924;2023-05-07T13:44:36;9.90;;;8.30;;
1991;SDS011;997;48.448;8.924;2023-05-07T13:47:03;7.20;;;6.60;;
1991;SDS011;997;48.448;8.924;2023-05-07T13:49:30;6.17;;;5.77;;
1991;SDS011;997;48.448;8.924;2023-05-07T13:51:55;6.87;;;6.37;;
1991;SDS011;997;48.448;8.924;2023-05-07T13:54:21;6.70;;;6.10;;
1991;SDS011;997;48.448;8.924;2023-05-07T13:56:47;5.83;;;4.93;;
1991;SDS011;997;48.448;8.924;2023-05-07T13:59:13;7.57;;;6.83;;
1991;SDS011;997;48.448;8.924;2023-05-07T14:01:39;6.33;;;5.83;;
1991;SDS011;997;48.448;8.924;2023-05-07T14:04:05;5.27;;;4.87;;
1991;SDS011;997;48.448;8.924;2023-05-07T14:06:31;3.73;;;3.43;;
1991;SDS011;997;48.448;8.924;2023-05-07T14:08:57;6.30;;;5.80;;
1991;SDS011;997;48.448;8.924;2023-05-07T14:11:23;5.30;;;5.00;;
1991;SDS011;997;48.448;8.924;2023-05-07T14:13:48;5.60;;;5.20;;
1991;SDS011;997;48.448;8.924;2023-05-07T14:16:14;4.47;;;4.17;;
1991;SDS011;997;48.448;8.924;2023-05-07T14:18:40;4.73;;;4.43;;
1991;SDS011;997;48.448;8.924;2023-05-07T14:21:06;4.63;;;4.33;;
1991;SDS011;997;48.448;8.924;2023-05-07T14:23:32;5.57;;;5.13;;
1991;SDS011;997;48.448;8.924;2023-05-07T14:25:58;6.10;;;5.70;;
1991;SDS011;997;48.448;8.924;2023-05-07T14:28:23;5.97;;;5.30;;
1991;SDS011;997;48.448;8.924;2023-05-07T14:30:49;5.00;;;4.60;;
1991;SDS011;997;48.448;8.924;2023-05-07T14:33:15;5.00;;;4.70;;
1991;SDS011;997;48.448;8.924;2023-05-07T14:35:41;5.87;;;5.33;;
1991;SDS011;997;48.448;8.924;2023-05-07T14:38:10;6.50;;;5.93;;
1991;SDS011;997;48.448;8.924;2023-05-07T14:40:35;4.97;;;4.33;;
1991;SDS011;997;48.448;8.924;2023-05-07T14:43:03;6.03;;;4.13;;
1991;SDS011;997;48.448;8.924;2023-05-07T14:45:28;5.37;;;4.83;;
1991;SDS011;997;48.448;8.924;2023-05-07T14:47:54;4.83;;;4.53;;
1991;SDS011;997;48.448;8.924;2023-05-07T14:50:20;3.90;;;3.60;;
1991;SDS011;997;48.448;8.924;2023-05-07T14:52:46;4.13;;;3.77;;
1991;SDS011;997;48.448;8.924;2023-05-07T14:55:11;3.40;;;3.20;;
1991;SDS011;997;48.448;8.924;2023-05-07T14:57:37;3.30;;;3.07;;
1991;SDS011;997;48.448;8.924;2023-05-07T15:00:03;4.10;;;3.37;;
1991;SDS011;997;48.448;8.924;2023-05-07T15:02:30;3.50;;;2.20;;
1991;SDS011;997;48.448;8.924;2023-05-07T15:04:55;2.50;;;2.30;;
1991;SDS011;997;48.448;8.924;2023-05-07T15:07:21;2.90;;;2.60;;
1991;SDS011;997;48.448;8.924;2023-05-07T15:09:50;2.87;;;2.60;;
1991;SDS011;997;48.448;8.924;2023-05-07T15:12:19;2.93;;;2.70;;
1991;SDS011;997;48.448;8.924;2023-05-07T15:14:45;3.13;;;2.73;;
1991;SDS011;997;48.448;8.924;2023-05-07T15:17:11;2.50;;;2.30;;
1991;SDS011;997;48.448;8.924;2023-05-07T15:19:37;3.03;;;2.50;;
1991;SDS011;997;48.448;8.924;2023-05-07T15:22:02;2.87;;;2.50;;
1991;SDS011;997;48.448;8.924;2023-05-07T15:24:29;3.17;;;2.87;;
1991;SDS011;997;48.448;8.924;2023-05-07T15:26:55;2.67;;;2.47;;
1991;SDS011;997;48.448;8.924;2023-05-07T15:29:21;2.70;;;2.47;;
1991;SDS011;997;48.448;8.924;2023-05-07T15:31:47;3.90;;;3.60;;
1991;SDS011;997;48.448;8.924;2023-05-07T15:34:12;3.17;;;2.27;;
1991;SDS011;997;48.448;8.924;2023-05-07T15:36:40;2.57;;;2.27;;
1991;SDS011;997;48.448;8.924;2023-05-07T15:39:06;3.00;;;2.37;;
1991;SDS011;997;48.448;8.924;2023-05-07T15:41:31;4.13;;;3.10;;
1991;SDS011;997;48.448;8.924;2023-05-07T15:43:57;2.80;;;2.47;;
1991;SDS011;997;48.448;8.924;2023-05-07T15:46:23;2.80;;;2.60;;
1991;SDS011;997;48.448;8.924;2023-05-07T15:48:50;3.37;;;2.27;;
1991;SDS011;997;48.448;8.924;2023-05-07T15:51:16;4.70;;;2.93;;
1991;SDS011;997;48.448;8.924;2023-05-07T15:53:42;3.87;;;2.50;;
1991;SDS011;997;48.448;8.924;2023-05-07T15:56:08;2.57;;;2.30;;
1991;SDS011;997;48.448;8.924;2023-05-07T15:58:34;2.53;;;2.33;;
1991;SDS011;997;48.448;8.924;2023-05-07T16:01:01;2.67;;;2.47;;
1991;SDS011;997;48.448;8.924;2023-05-07T16:03:27;2.70;;;2.50;;
1991;SDS011;997;48.448;8.924;2023-05-07T16:05:54;4.53;;;4.23;;
1991;SDS011;997;48.448;8.924;2023-05-07T16:08:22;3.07;;;2.87;;
1991;SDS011;997;48.448;8.924;2023-05-07T16:10:48;3.00;;;2.57;;
1991;SDS011;997;48.448;8.924;2023-05-07T16:13:14;3.03;;;2.80;;
1991;SDS011;997;48.448;8.924;2023-05-07T16:15:43;2.80;;;2.60;;
1991;SDS011;997;48.448;8.924;2023-05-07T16:18:09;7.77;;;2.60;;
1991;SDS011;997;48.448;8.924;2023-05-07T16:20:36;4.50;;;2.70;;
1991;SDS011;997;48.448;8.924;2023-05-07T16:23:01;3.23;;;2.93;;
1991;SDS011;997;48.448;8.924;2023-05-07T16:25:27;3.83;;;3.40;;
1991;SDS011;997;48.448;8.924;2023-05-07T16:27:54;4.43;;;3.10;;
1991;SDS011;997;48.448;8.924;2023-05-07T16:30:19;6.47;;;3.10;;
1991;SDS011;997;48.448;8.924;2023-05-07T16:32:45;5.00;;;3.60;;
1991;SDS011;997;48.448;8.924;2023-05-07T16:35:11;2.90;;;2.70;;
1991;SDS011;997;48.448;8.924;2023-05-07T16:37:38;5.17;;;4.87;;
1991;SDS011;997;48.448;8.924;2023-05-07T16:40:05;4.20;;;3.90;;
1991;SDS011;997;48.448;8.924;2023-05-07T16:42:35;3.07;;;2.83;;
1991;SDS011;997;48.448;8.924;2023-05-07T16:45:01;3.90;;;3.60;;
1991;SDS011;997;48.448;8.924;2023-05-07T16:50:14;3.30;;;3.10;;
1991;SDS011;997;48.448;8.924;2023-05-07T16:52:39;3.07;;;2.73;;
1991;SDS011;997;48.448;8.924;2023-05-07T16:55:05;2.93;;;2.73;;
1991;SDS011;997;48.448;8.924;2023-05-07T16:57:31;3.37;;;3.07;;
1991;SDS011;997;48.448;8.924;2023-05-07T16:59:57;3.87;;;3.30;;
1991;SDS011;997;48.448;8.924;2023-05-07T17:02:23;4.77;;;3.30;;
1991;SDS011;997;48.448;8.924;2023-05-07T17:04:49;3.43;;;3.10;;
1991;SDS011;997;48.448;8.924;2023-05-07T17:07:15;5.20;;;3.30;;
1991;SDS011;997;48.448;8.924;2023-05-07T17:09:41;3.50;;;3.20;;
1991;SDS011;997;48.448;8.924;2023-05-07T17:12:06;3.43;;;3.20;;
1991;SDS011;997;48.448;8.924;2023-05-07T17:14:32;3.63;;;3.13;;
1991;SDS011;997;48.448;8.924;2023-05-07T17:16:58;3.43;;;3.13;;
1991;SDS011;997;48.448;8.924;2023-05-07T17:19:23;3.60;;;3.20;;
1991;SDS011;997;48.448;8.924;2023-05-07T17:21:49;3.53;;;3.33;;
1991;SDS011;997;48.448;8.924;2023-05-07T17:24:16;3.70;;;3.40;;
1991;SDS011;997;48.448;8.924;2023-05-07T17:26:41;3.30;;;3.00;;
1991;SDS011;997;48.448;8.924;2023-05-07T17:29:07;4.30;;;3.90;;
1991;SDS011;997;48.448;8.924;2023-05-07T17:31:34;3.57;;;3.37;;
1991;SDS011;997;48.448;8.924;2023-05-07T17:33:59;3.67;;;3.33;;
1991;SDS011;997;48.448;8.924;2023-05-07T17:36:25;5.10;;;3.40;;
1991;SDS011;997;48.448;8.924;2023-05-07T17:38:51;5.40;;;3.73;;
1991;SDS011;997;48.448;8.924;2023-05-07T17:41:17;6.60;;;6.00;;
1991;SDS011;997;48.448;8.924;2023-05-07T17:43:42;6.33;;;5.83;;
1991;SDS011;997;48.448;8.924;2023-05-07T17:46:08;5.93;;;5.50;;
1991;SDS011;997;48.448;8.924;2023-05-07T17:48:34;4.27;;;3.87;;
1991;SDS011;997;48.448;8.924;2023-05-07T17:51:02;5.20;;;4.20;;
1991;SDS011;997;48.448;8.924;2023-05-07T17:53:28;4.30;;;3.90;;
1991;SDS011;997;48.448;8.924;2023-05-07T17:55:54;4.70;;;3.63;;
1991;SDS011;997;48.448;8.924;2023-05-07T17:58:20;4.57;;;3.70;;
1991;SDS011;997;48.448;8.924;2023-05-07T18:00:49;3.87;;;3.53;;
1991;SDS011;997;48.448;8.924;2023-05-07T18:03:15;4.50;;;4.20;;
1991;SDS011;997;48.448;8.924;2023-05-07T18:05:40;7.57;;;4.20;;
1991;SDS011;997;48.448;8.924;2023-05-07T18:08:06;5.23;;;4.90;;
1991;SDS011;997;48.448;8.924;2023-05-07T18:10:32;5.23;;;4.83;;
1991;SDS011;997;48.448;8.924;2023-05-07T18:12:57;6.03;;;5.43;;
1991;SDS011;997;48.448;8.924;2023-05-07T18:15:23;4.90;;;4.50;;
1991;SDS011;997;48.448;8.924;2023-05-07T18:17:49;5.30;;;4.80;;
1991;SDS011;997;48.448;8.924;2023-05-07T18:20:14;5.73;;;5.27;;
1991;SDS011;997;48.448;8.924;2023-05-07T18:22:40;5.93;;;5.47;;
1991;SDS011;997;48.448;8.924;2023-05-07T18:25:06;4.43;;;4.03;;
1991;SDS011;997;48.448;8.924;2023-05-07T18:27:32;5.03;;;4.60;;
1991;SDS011;997;48.448;8.924;2023-05-07T18:29:58;5.10;;;4.57;;
1991;SDS011;997;48.448;8.924;2023-05-07T18:32:24;5.03;;;4.63;;
1991;SDS011;997;48.448;8.924;2023-05-07T18:34:49;5.57;;;5.07;;
1991;SDS011;997;48.448;8.924;2023-05-07T18:37:15;5.50;;;5.10;;
1991;SDS011;997;48.448;8.924;2023-05-07T18:39:41;4.83;;;4.50;;
1991;SDS011;997;48.448;8.924;2023-05-07T18:42:10;4.27;;;3.97;;
1991;SDS011;997;48.448;8.924;2023-05-07T18:44:37;5.03;;;4.63;;
1991;SDS011;997;48.448;8.924;2023-05-07T18:47:05;6.10;;;4.50;;
1991;SDS011;997;48.448;8.924;2023-05-07T18:49:32;3.80;;;3.50;;
1991;SDS011;997;48.448;8.924;2023-05-07T18:51:58;3.93;;;3.63;;
1991;SDS011;997;48.448;8.924;2023-05-07T18:54:24;4.77;;;4.40;;
1991;SDS011;997;48.448;8.924;2023-05-07T18:56:50;4.73;;;4.43;;
1991;SDS011;997;48.448;8.924;2023-05-07T18:59:16;6.13;;;4.67;;
1991;SDS011;997;48.448;8.924;2023-05-07T19:01:41;4.00;;;3.50;;
1991;SDS011;997;48.448;8.924;2023-05-07T19:04:07;3.60;;;3.40;;
1991;SDS011;997;48.448;8.924;2023-05-07T19:06:34;3.67;;;3.47;;
1991;SDS011;997;48.448;8.924;2023-05-07T19:08:59;4.00;;;3.70;;
1991;SDS011;997;48.448;8.924;2023-05-07T19:11:25;4.30;;;3.97;;
1991;SDS011;997;48.448;8.924;2023-05-07T19:13:51;6.00;;;3.80;;
1991;SDS011;997;48.448;8.924;2023-05-07T19:16:16;3.43;;;3.23;;
1991;SDS011;997;48.448;8.924;2023-05-07T19:18:42;4.30;;;3.70;;
1991;SDS011;997;48.448;8.924;2023-05-07T19:21:08;4.30;;;4.00;;
1991;SDS011;997;48.448;8.924;2023-05-07T19:23:34;3.77;;;3.53;;
1991;SDS011;997;48.448;8.924;2023-05-07T19:26:05;3.57;;;3.37;;
1991;SDS011;997;48.448;8.924;2023-05-07T19:28:33;3.93;;;3.60;;
1991;SDS011;997;48.448;8.924;2023-05-07T19:30:58;3.87;;;3.57;;
1991;SDS011;997;48.448;8.924;2023-05-07T19:33:24;4.13;;;3.80;;
1991;SDS011;997;48.448;8.924;2023-05-07T19:35:50;5.30;;;3.60;;
1991;SDS011;997;48.448;8.924;2023-05-07T19:38:18;3.70;;;3.40;;
1991;SDS011;997;48.448;8.924;2023-05-07T19:40:43;4.20;;;3.87;;
1991;SDS011;997;48.448;8.924;2023-05-07T19:43:09;4.37;;;3.97;;
1991;SDS011;997;48.448;8.924;2023-05-07T19:45:35;4.73;;;4.40;;
1991;SDS011;997;48.448;8.924;2023-05-07T19:48:01;5.07;;;4.67;;
1991;SDS011;997;48.448;8.924;2023-05-07T19:50:27;5.50;;;5.10;;
1991;SDS011;997;48.448;8.924;2023-05-07T19:52:52;4.77;;;4.47;;
1991;SDS011;997;48.448;8.924;2023-05-07T19:55:18;4.30;;;3.23;;
1991;SDS011;997;48.448;8.924;2023-05-07T19:57:44;4.93;;;4.43;;
1991;SDS011;997;48.448;8.924;2023-05-07T20:00:14;4.13;;;3.83;;
1991;SDS011;997;48.448;8.924;2023-05-07T20:02:40;4.83;;;4.40;;
1991;SDS011;997;48.448;8.924;2023-05-07T20:05:06;4.70;;;3.60;;
1991;SDS011;997;48.448;8.924;2023-05-07T20:07:32;4.50;;;3.23;;
1991;SDS011;997;48.448;8.924;2023-05-07T20:09:57;4.00;;;3.27;;
1991;SDS011;997;48.448;8.924;2023-05-07T20:12:23;3.90;;;3.60;;
1991;SDS011;997;48.448;8.924;2023-05-07T20:14:48;4.00;;;3.70;;
1991;SDS011;997;48.448;8.924;2023-05-07T20:17:14;4.03;;;3.73;;
1991;SDS011;997;48.448;8.924;2023-05-07T20:19:40;4.13;;;3.93;;
1991;SDS011;997;48.448;8.924;2023-05-07T20:22:05;3.67;;;3.47;;
1991;SDS011;997;48.448;8.924;2023-05-07T20:24:35;3.53;;;3.27;;
1991;SDS011;997;48.448;8.924;2023-05-07T20:27:02;3.67;;;3.33;;
1991;SDS011;997;48.448;8.924;2023-05-07T20:29:31;3.60;;;3.30;;
1991;SDS011;997;48.448;8.924;2023-05-07T20:31:57;6.20;;;3.37;;
1991;SDS011;997;48.448;8.924;2023-05-07T20:34:23;4.63;;;4.23;;
1991;SDS011;997;48.448;8.924;2023-05-07T20:36:49;4.73;;;4.27;;
1991;SDS011;997;48.448;8.924;2023-05-07T20:39:14;4.10;;;3.53;;
1991;SDS011;997;48.448;8.924;2023-05-07T20:41:41;9.60;;;4.10;;
1991;SDS011;997;48.448;8.924;2023-05-07T20:44:08;4.03;;;3.70;;
1991;SDS011;997;48.448;8.924;2023-05-07T20:46:34;4.30;;;3.63;;
1991;SDS011;997;48.448;8.924;2023-05-07T20:49:01;4.07;;;3.77;;
1991;SDS011;997;48.448;8.924;2023-05-07T20:51:27;4.40;;;4.10;;
1991;SDS011;997;48.448;8.924;2023-05-07T20:53:53;3.90;;;3.60;;
1991;SDS011;997;48.448;8.924;2023-05-07T20:56:19;5.53;;;4.33;;
1991;SDS011;997;48.448;8.924;2023-05-07T20:58:45;4.53;;;4.10;;
1991;SDS011;997;48.448;8.924;2023-05-07T21:01:11;4.90;;;4.30;;
1991;SDS011;997;48.448;8.924;2023-05-07T21:03:37;4.97;;;4.57;;
1991;SDS011;997;48.448;8.924;2023-05-07T21:06:03;4.90;;;4.50;;
1991;SDS011;997;48.448;8.924;2023-05-07T21:08:29;5.37;;;4.97;;
1991;SDS011;997;48.448;8.924;2023-05-07T21:10:55;5.93;;;5.37;;
1991;SDS011;997;48.448;8.924;2023-05-07T21:13:21;5.27;;;4.87;;
1991;SDS011;997;48.448;8.924;2023-05-07T21:15:47;5.40;;;4.90;;
1991;SDS011;997;48.448;8.924;2023-05-07T21:18:13;5.53;;;5.13;;
1991;SDS011;997;48.448;8.924;2023-05-07T21:20:38;6.07;;;5.57;;
1991;SDS011;997;48.448;8.924;2023-05-07T21:23:04;5.80;;;5.50;;
1991;SDS011;997;48.448;8.924;2023-05-07T21:25:30;8.37;;;7.67;;
1991;SDS011;997;48.448;8.924;2023-05-07T21:27:56;7.23;;;6.73;;
